sensor_id;sensor_type;location;lat;lon;timestamp;P1;durP1;ratioP1;P2;durP2;ratioP2
9938;SDS011;5008;50.656;7.188;2024-03-22T05:02:40;13.60;;;11.20;;
9938;SDS011;5008;50.656;7.188;2024-03-22T05:05:06;16.10;;;11.60;;
9938;SDS011;5008;50.656;7.188;2024-03-22T05:07:33;13.67;;;10.73;;
9938;SDS011;5008;50.656;7.188;2024-03-22T05:10:03;15.77;;;12.10;;
9938;SDS011;5008;50.656;7.188;2024-03-22T05:12:31;16.73;;;11.50;;
9938;SDS011;5008;50.656;7.188;2024-03-22T05:14:57;15.50;;;11.27;;
9938;SDS011;5008;50.656;7.188;2024-03-22T05:17:25;14.73;;;11.13;;
9938;SDS011;5008;50.656;7.188;2024-03-22T05:19:51;16.07;;;11.27;;
9938;SDS011;5008;50.656;7.188;2024-03-22T05:22:18;13.10;;;10.70;;
9938;SDS011;5008;50.656;7.188;2024-03-22T05:24:45;13.93;;;10.93;;
9938;SDS011;5008;50.656;7.188;2024-03-22T05:27:12;13.77;;;10.87;;
9938;SDS011;5008;50.656;7.188;2024-03-22T05:29:38;12.80;;;10.87;;
9938;SDS011;5008;50.656;7.188;2024-03-22T05:32:05;13.40;;;11.07;;
9938;SDS011;5008;50.656;7.188;2024-03-22T05:34:32;15.63;;;11.47;;
9938;SDS011;5008;50.656;7.188;2024-03-22T05:37:00;13.37;;;10.40;;
9938;SDS011;5008;50.656;7.188;2024-03-22T05:39:26;14.80;;;11.43;;
9938;SDS011;5008;50.656;7.188;2024-03-22T05:41:53;12.63;;;11.23;;
9938;SDS011;5008;50.656;7.188;2024-03-22T05:44:33;14.67;;;10.27;;
9938;SDS011;5008;50.656;7.188;2024-03-22T05:47:00;14.67;;;10.40;;
9938;SDS011;5008;50.656;7.188;2024-03-22T05:49:26;17.00;;;11.93;;
9938;SDS011;5008;50.656;7.188;2024-03-22T05:51:54;11.17;;;9.83;;
9938;SDS011;5008;50.656;7.188;2024-03-22T05:54:20;15.00;;;11.43;;
9938;SDS011;5008;50.656;7.188;2024-03-22T05:56:47;11.70;;;10.00;;
9938;SDS011;5008;50.656;7.188;2024-03-22T05:59:23;13.73;;;10.77;;
9938;SDS011;5008;50.656;7.188;2024-03-22T06:01:49;13.50;;;10.40;;
9938;SDS011;5008;50.656;7.188;2024-03-22T06:04:15;13.60;;;10.37;;
9938;SDS011;5008;50.656;7.188;2024-03-22T06:06:42;15.53;;;11.13;;
9938;SDS011;5008;50.656;7.188;2024-03-22T06:09:09;12.40;;;10.63;;
9938;SDS011;5008;50.656;7.188;2024-03-22T06:11:36;14.63;;;11.00;;
9938;SDS011;5008;50.656;7.188;2024-03-22T06:14:02;17.47;;;10.47;;
9938;SDS011;5008;50.656;7.188;2024-03-22T06:16:29;13.13;;;10.50;;
9938;SDS011;5008;50.656;7.188;2024-03-22T06:21:24;13.70;;;10.20;;
9938;SDS011;5008;50.656;7.188;2024-03-22T06:23:51;14.20;;;10.43;;
9938;SDS011;5008;50.656;7.188;2024-03-22T06:26:19;15.80;;;10.60;;
9938;SDS011;5008;50.656;7.188;2024-03-22T06:28:48;13.37;;;10.47;;
9938;SDS011;5008;50.656;7.188;2024-03-22T06:31:16;12.17;;;9.77;;
9938;SDS011;5008;50.656;7.188;2024-03-22T06:33:42;12.80;;;10.47;;
9938;SDS011;5008;50.656;7.188;2024-03-22T06:36:09;14.17;;;10.47;;
9938;SDS011;5008;50.656;7.188;2024-03-22T06:38:34;9.73;;;8.70;;
9938;SDS011;5008;50.656;7.188;2024-03-22T06:41:01;12.93;;;10.50;;
9938;SDS011;5008;50.656;7.188;2024-03-22T06:43:30;12.67;;;9.53;;
9938;SDS011;5008;50.656;7.188;2024-03-22T06:45:57;9.80;;;7.73;;
9938;SDS011;5008;50.656;7.188;2024-03-22T06:48:23;13.63;;;10.73;;
9938;SDS011;5008;50.656;7.188;2024-03-22T06:50:49;12.00;;;10.27;;
9938;SDS011;5008;50.656;7.188;2024-03-22T06:53:15;10.73;;;9.60;;
9938;SDS011;5008;50.656;7.188;2024-03-22T06:55:42;12.37;;;10.27;;
9938;SDS011;5008;50.656;7.188;2024-03-22T06:58:07;12.90;;;9.67;;
9938;SDS011;5008;50.656;7.188;2024-03-22T07:00:36;12.30;;;9.87;;
9938;SDS011;5008;50.656;7.188;2024-03-22T07:03:02;10.57;;;8.90;;
9938;SDS011;5008;50.656;7.188;2024-03-22T07:05:29;12.87;;;9.63;;
9938;SDS011;5008;50.656;7.188;2024-03-22T07:07:55;12.30;;;9.90;;
9938;SDS011;5008;50.656;7.188;2024-03-22T07:10:22;11.47;;;9.00;;
9938;SDS011;5008;50.656;7.188;2024-03-22T07:12:54;13.77;;;9.57;;
9938;SDS011;5008;50.656;7.188;2024-03-22T07:15:21;11.33;;;8.90;;
9938;SDS011;5008;50.656;7.188;2024-03-22T07:17:49;11.70;;;9.97;;
9938;SDS011;5008;50.656;7.188;2024-03-22T07:20:16;12.40;;;9.17;;
9938;SDS011;5008;50.656;7.188;2024-03-22T07:22:43;9.70;;;8.70;;
9938;SDS011;5008;50.656;7.188;2024-03-22T07:25:11;15.10;;;10.17;;
9938;SDS011;5008;50.656;7.188;2024-03-22T07:27:36;13.27;;;9.70;;
9938;SDS011;5008;50.656;7.188;2024-03-22T07:30:04;12.17;;;10.10;;
9938;SDS011;5008;50.656;7.188;2024-03-22T07:32:31;11.80;;;9.73;;
9938;SDS011;5008;50.656;7.188;2024-03-22T07:34:59;12.20;;;9.87;;
9938;SDS011;5008;50.656;7.188;2024-03-22T07:37:25;12.53;;;10.40;;
9938;SDS011;5008;50.656;7.188;2024-03-22T07:39:52;11.60;;;9.60;;
9938;SDS011;5008;50.656;7.188;2024-03-22T07:42:17;12.27;;;9.67;;
9938;SDS011;5008;50.656;7.188;2024-03-22T07:44:44;11.77;;;9.43;;
9938;SDS011;5008;50.656;7.188;2024-03-22T07:47:10;12.37;;;9.40;;
9938;SDS011;5008;50.656;7.188;2024-03-22T07:49:37;13.23;;;9.87;;
9938;SDS011;5008;50.656;7.188;2024-03-22T07:52:04;10.47;;;8.43;;
9938;SDS011;5008;50.656;7.188;2024-03-22T07:54:31;10.33;;;9.07;;
9938;SDS011;5008;50.656;7.188;2024-03-22T07:56:57;9.33;;;8.33;;
9938;SDS011;5008;50.656;7.188;2024-03-22T07:59:24;10.57;;;9.07;;
9938;SDS011;5008;50.656;7.188;2024-03-22T08:01:50;9.57;;;8.43;;
9938;SDS011;5008;50.656;7.188;2024-03-22T08:04:17;8.17;;;6.97;;
9938;SDS011;5008;50.656;7.188;2024-03-22T08:06:42;11.77;;;9.47;;
9938;SDS011;5008;50.656;7.188;2024-03-22T08:09:12;7.17;;;6.40;;
9938;SDS011;5008;50.656;7.188;2024-03-22T08:11:37;11.13;;;8.60;;
9938;SDS011;5008;50.656;7.188;2024-03-22T08:14:04;11.37;;;8.23;;
9938;SDS011;5008;50.656;7.188;2024-03-22T08:16:30;9.17;;;8.17;;
9938;SDS011;5008;50.656;7.188;2024-03-22T08:18:57;10.63;;;8.17;;
9938;SDS011;5008;50.656;7.188;2024-03-22T08:21:23;9.50;;;8.47;;
9938;SDS011;5008;50.656;7.188;2024-03-22T08:23:52;9.40;;;8.40;;
9938;SDS011;5008;50.656;7.188;2024-03-22T08:26:19;10.00;;;7.73;;
9938;SDS011;5008;50.656;7.188;2024-03-22T08:28:46;10.03;;;7.87;;
9938;SDS011;5008;50.656;7.188;2024-03-22T08:31:12;10.27;;;7.67;;
9938;SDS011;5008;50.656;7.188;2024-03-22T08:33:39;9.53;;;7.80;;
9938;SDS011;5008;50.656;7.188;2024-03-22T08:36:05;9.23;;;6.37;;
9938;SDS011;5008;50.656;7.188;2024-03-22T08:38:43;9.30;;;5.83;;
9938;SDS011;5008;50.656;7.188;2024-03-22T08:41:09;7.37;;;6.30;;
9938;SDS011;5008;50.656;7.188;2024-03-22T08:43:37;8.13;;;6.70;;
9938;SDS011;5008;50.656;7.188;2024-03-22T08:46:03;8.23;;;6.85;;
9938;SDS011;5008;50.656;7.188;2024-03-22T08:48:30;10.13;;;7.27;;
9938;SDS011;5008;50.656;7.188;2024-03-22T08:50:56;7.40;;;6.43;;
9938;SDS011;5008;50.656;7.188;2024-03-22T08:53:22;9.97;;;6.93;;
9938;SDS011;5008;50.656;7.188;2024-03-22T08:55:50;9.20;;;6.97;;
9938;SDS011;5008;50.656;7.188;2024-03-22T08:58:16;7.82;;;5.90;;
9938;SDS011;5008;50.656;7.188;2024-03-22T09:00:44;5.57;;;5.00;;
9938;SDS011;5008;50.656;7.188;2024-03-22T09:03:11;7.38;;;5.50;;
9938;SDS011;5008;50.656;7.188;2024-03-22T09:05:36;4.93;;;3.78;;
9938;SDS011;5008;50.656;7.188;2024-03-22T09:08:04;8.25;;;6.50;;
9938;SDS011;5008;50.656;7.188;2024-03-22T09:10:30;9.13;;;7.05;;
9938;SDS011;5008;50.656;7.188;2024-03-22T09:12:57;9.20;;;7.18;;
9938;SDS011;5008;50.656;7.188;2024-03-22T09:15:22;8.75;;;7.28;;
9938;SDS011;5008;50.656;7.188;2024-03-22T09:20:36;7.70;;;6.90;;
9938;SDS011;5008;50.656;7.188;2024-03-22T09:23:03;8.30;;;7.07;;
9938;SDS011;5008;50.656;7.188;2024-03-22T09:25:29;9.65;;;7.97;;
9938;SDS011;5008;50.656;7.188;2024-03-22T09:27:56;8.63;;;7.53;;
9938;SDS011;5008;50.656;7.188;2024-03-22T09:30:32;11.90;;;8.35;;
9938;SDS011;5008;50.656;7.188;2024-03-22T09:33:03;10.77;;;8.68;;
9938;SDS011;5008;50.656;7.188;2024-03-22T09:35:31;9.27;;;8.30;;
9938;SDS011;5008;50.656;7.188;2024-03-22T09:37:59;11.20;;;9.65;;
9938;SDS011;5008;50.656;7.188;2024-03-22T09:40:24;10.93;;;9.45;;
9938;SDS011;5008;50.656;7.188;2024-03-22T09:42:52;11.90;;;9.95;;
9938;SDS011;5008;50.656;7.188;2024-03-22T09:45:18;13.82;;;10.40;;
9938;SDS011;5008;50.656;7.188;2024-03-22T09:47:46;12.07;;;10.43;;
9938;SDS011;5008;50.656;7.188;2024-03-22T09:50:15;12.50;;;10.05;;
9938;SDS011;5008;50.656;7.188;2024-03-22T09:52:43;11.18;;;9.77;;
9938;SDS011;5008;50.656;7.188;2024-03-22T09:55:10;11.90;;;9.63;;
9938;SDS011;5008;50.656;7.188;2024-03-22T09:57:45;12.52;;;9.60;;
9938;SDS011;5008;50.656;7.188;2024-03-22T10:00:12;11.85;;;10.10;;
9938;SDS011;5008;50.656;7.188;2024-03-22T10:02:41;12.05;;;10.00;;
9938;SDS011;5008;50.656;7.188;2024-03-22T10:05:07;11.52;;;10.20;;
9938;SDS011;5008;50.656;7.188;2024-03-22T10:07:34;12.73;;;10.15;;
9938;SDS011;5008;50.656;7.188;2024-03-22T10:10:02;15.93;;;10.20;;
9938;SDS011;5008;50.656;7.188;2024-03-22T10:12:29;12.63;;;10.43;;
9938;SDS011;5008;50.656;7.188;2024-03-22T10:14:55;12.40;;;10.27;;
9938;SDS011;5008;50.656;7.188;2024-03-22T10:17:22;13.02;;;11.13;;
9938;SDS011;5008;50.656;7.188;2024-03-22T10:19:48;11.70;;;10.18;;
9938;SDS011;5008;50.656;7.188;2024-03-22T10:22:15;10.93;;;9.68;;
9938;SDS011;5008;50.656;7.188;2024-03-22T10:24:41;11.48;;;9.88;;
9938;SDS011;5008;50.656;7.188;2024-03-22T10:27:09;11.60;;;9.75;;
9938;SDS011;5008;50.656;7.188;2024-03-22T10:29:35;9.57;;;8.68;;
9938;SDS011;5008;50.656;7.188;2024-03-22T10:32:02;14.88;;;9.88;;
9938;SDS011;5008;50.656;7.188;2024-03-22T10:34:29;12.60;;;10.70;;
9938;SDS011;5008;50.656;7.188;2024-03-22T10:36:56;11.57;;;9.77;;
9938;SDS011;5008;50.656;7.188;2024-03-22T10:39:22;11.57;;;9.32;;
9938;SDS011;5008;50.656;7.188;2024-03-22T10:41:50;10.52;;;9.02;;
9938;SDS011;5008;50.656;7.188;2024-03-22T10:44:17;11.63;;;9.05;;
9938;SDS011;5008;50.656;7.188;2024-03-22T10:46:44;11.05;;;8.98;;
9938;SDS011;5008;50.656;7.188;2024-03-22T10:49:13;9.27;;;8.38;;
9938;SDS011;5008;50.656;7.188;2024-03-22T10:51:42;8.93;;;8.02;;
9938;SDS011;5008;50.656;7.188;2024-03-22T10:54:11;11.20;;;8.25;;
9938;SDS011;5008;50.656;7.188;2024-03-22T10:56:44;9.82;;;8.57;;
9938;SDS011;5008;50.656;7.188;2024-03-22T11:02:02;8.77;;;7.88;;
9938;SDS011;5008;50.656;7.188;2024-03-22T11:04:29;9.38;;;7.20;;
9938;SDS011;5008;50.656;7.188;2024-03-22T11:06:56;8.63;;;7.18;;
9938;SDS011;5008;50.656;7.188;2024-03-22T11:09:22;13.00;;;7.13;;
9938;SDS011;5008;50.656;7.188;2024-03-22T11:11:51;9.40;;;6.95;;
9938;SDS011;5008;50.656;7.188;2024-03-22T11:14:18;7.35;;;6.65;;
9938;SDS011;5008;50.656;7.188;2024-03-22T11:16:46;10.43;;;7.30;;
9938;SDS011;5008;50.656;7.188;2024-03-22T11:19:13;8.95;;;6.57;;
9938;SDS011;5008;50.656;7.188;2024-03-22T11:21:40;8.90;;;6.07;;
9938;SDS011;5008;50.656;7.188;2024-03-22T11:24:06;7.18;;;5.80;;
9938;SDS011;5008;50.656;7.188;2024-03-22T11:26:33;8.00;;;6.50;;
9938;SDS011;5008;50.656;7.188;2024-03-22T11:28:59;8.50;;;6.32;;
9938;SDS011;5008;50.656;7.188;2024-03-22T11:31:26;6.90;;;6.20;;
9938;SDS011;5008;50.656;7.188;2024-03-22T11:33:54;6.30;;;5.22;;
9938;SDS011;5008;50.656;7.188;2024-03-22T11:36:21;6.28;;;5.03;;
9938;SDS011;5008;50.656;7.188;2024-03-22T11:38:47;6.80;;;5.78;;
9938;SDS011;5008;50.656;7.188;2024-03-22T11:41:16;7.68;;;6.55;;
9938;SDS011;5008;50.656;7.188;2024-03-22T11:43:42;7.97;;;7.18;;
9938;SDS011;5008;50.656;7.188;2024-03-22T11:46:10;7.07;;;6.00;;
9938;SDS011;5008;50.656;7.188;2024-03-22T11:48:38;6.72;;;6.10;;
9938;SDS011;5008;50.656;7.188;2024-03-22T11:51:08;6.65;;;5.68;;
9938;SDS011;5008;50.656;7.188;2024-03-22T11:53:34;6.63;;;5.95;;
9938;SDS011;5008;50.656;7.188;2024-03-22T11:56:02;6.65;;;5.93;;
9938;SDS011;5008;50.656;7.188;2024-03-22T11:58:29;6.88;;;5.63;;
9938;SDS011;5008;50.656;7.188;2024-03-22T12:00:56;6.28;;;4.95;;
9938;SDS011;5008;50.656;7.188;2024-03-22T12:03:23;5.38;;;4.88;;
9938;SDS011;5008;50.656;7.188;2024-03-22T12:05:50;6.07;;;4.97;;
9938;SDS011;5008;50.656;7.188;2024-03-22T12:08:20;5.95;;;4.97;;
9938;SDS011;5008;50.656;7.188;2024-03-22T12:10:47;4.97;;;4.53;;
9938;SDS011;5008;50.656;7.188;2024-03-22T12:13:13;5.07;;;4.53;;
9938;SDS011;5008;50.656;7.188;2024-03-22T12:15:46;5.72;;;4.03;;
9938;SDS011;5008;50.656;7.188;2024-03-22T12:18:14;5.90;;;4.57;;
9938;SDS011;5008;50.656;7.188;2024-03-22T12:20:42;5.20;;;4.13;;
9938;SDS011;5008;50.656;7.188;2024-03-22T12:23:08;4.57;;;4.13;;
9938;SDS011;5008;50.656;7.188;2024-03-22T12:25:36;5.13;;;4.38;;
9938;SDS011;5008;50.656;7.188;2024-03-22T12:28:02;4.95;;;4.38;;
9938;SDS011;5008;50.656;7.188;2024-03-22T12:30:29;5.13;;;4.63;;
9938;SDS011;5008;50.656;7.188;2024-03-22T12:32:55;6.28;;;4.30;;
9938;SDS011;5008;50.656;7.188;2024-03-22T12:35:24;5.50;;;4.32;;
9938;SDS011;5008;50.656;7.188;2024-03-22T12:37:50;4.95;;;3.80;;
9938;SDS011;5008;50.656;7.188;2024-03-22T12:40:17;3.70;;;3.30;;
9938;SDS011;5008;50.656;7.188;2024-03-22T12:42:44;3.80;;;2.83;;
9938;SDS011;5008;50.656;7.188;2024-03-22T12:45:11;4.45;;;2.60;;
9938;SDS011;5008;50.656;7.188;2024-03-22T12:47:37;2.53;;;2.30;;
9938;SDS011;5008;50.656;7.188;2024-03-22T12:50:04;2.80;;;2.17;;
9938;SDS011;5008;50.656;7.188;2024-03-22T12:52:31;4.57;;;1.95;;
9938;SDS011;5008;50.656;7.188;2024-03-22T12:54:57;2.17;;;1.95;;
9938;SDS011;5008;50.656;7.188;2024-03-22T12:57:23;3.08;;;2.47;;
9938;SDS011;5008;50.656;7.188;2024-03-22T12:59:51;3.15;;;2.67;;
9938;SDS011;5008;50.656;7.188;2024-03-22T13:02:17;3.65;;;3.00;;
9938;SDS011;5008;50.656;7.188;2024-03-22T13:04:44;3.45;;;3.08;;
9938;SDS011;5008;50.656;7.188;2024-03-22T13:07:09;4.43;;;3.15;;
9938;SDS011;5008;50.656;7.188;2024-03-22T13:09:36;5.00;;;3.15;;
9938;SDS011;5008;50.656;7.188;2024-03-22T13:12:02;4.32;;;2.90;;
9938;SDS011;5008;50.656;7.188;2024-03-22T13:14:29;2.33;;;2.13;;
9938;SDS011;5008;50.656;7.188;2024-03-22T13:16:56;2.90;;;1.83;;
9938;SDS011;5008;50.656;7.188;2024-03-22T13:19:23;5.47;;;2.03;;
9938;SDS011;5008;50.656;7.188;2024-03-22T13:21:49;4.82;;;1.80;;
9938;SDS011;5008;50.656;7.188;2024-03-22T13:24:16;3.25;;;1.60;;
9938;SDS011;5008;50.656;7.188;2024-03-22T13:26:42;2.00;;;1.73;;
9938;SDS011;5008;50.656;7.188;2024-03-22T13:29:09;2.85;;;2.35;;
9938;SDS011;5008;50.656;7.188;2024-03-22T13:31:35;3.60;;;3.30;;
9938;SDS011;5008;50.656;7.188;2024-03-22T13:34:03;7.60;;;4.40;;
9938;SDS011;5008;50.656;7.188;2024-03-22T13:36:29;4.80;;;4.40;;
9938;SDS011;5008;50.656;7.188;2024-03-22T13:38:57;4.75;;;4.25;;
9938;SDS011;5008;50.656;7.188;2024-03-22T13:41:24;5.38;;;4.75;;
9938;SDS011;5008;50.656;7.188;2024-03-22T13:43:50;4.18;;;3.78;;
9938;SDS011;5008;50.656;7.188;2024-03-22T13:46:16;5.90;;;3.70;;
9938;SDS011;5008;50.656;7.188;2024-03-22T13:48:43;6.05;;;3.90;;
9938;SDS011;5008;50.656;7.188;2024-03-22T13:51:11;5.30;;;4.80;;
9938;SDS011;5008;50.656;7.188;2024-03-22T13:53:37;5.50;;;4.00;;
9938;SDS011;5008;50.656;7.188;2024-03-22T13:56:03;4.45;;;4.05;;
9938;SDS011;5008;50.656;7.188;2024-03-22T13:58:30;6.22;;;4.45;;
9938;SDS011;5008;50.656;7.188;2024-03-22T14:00:56;4.25;;;3.85;;
9938;SDS011;5008;50.656;7.188;2024-03-22T14:03:23;4.30;;;3.90;;
9938;SDS011;5008;50.656;7.188;2024-03-22T14:05:48;3.83;;;3.50;;
9938;SDS011;5008;50.656;7.188;2024-03-22T14:08:17;5.20;;;4.70;;
9938;SDS011;5008;50.656;7.188;2024-03-22T14:10:43;4.55;;;3.63;;
9938;SDS011;5008;50.656;7.188;2024-03-22T14:13:09;7.22;;;4.53;;
9938;SDS011;5008;50.656;7.188;2024-03-22T14:15:35;4.75;;;4.35;;
9938;SDS011;5008;50.656;7.188;2024-03-22T14:18:05;4.57;;;4.18;;
9938;SDS011;5008;50.656;7.188;2024-03-22T14:20:31;4.10;;;2.95;;
9938;SDS011;5008;50.656;7.188;2024-03-22T14:22:58;4.05;;;3.58;;
9938;SDS011;5008;50.656;7.188;2024-03-22T14:25:25;4.82;;;3.58;;
9938;SDS011;5008;50.656;7.188;2024-03-22T14:27:52;3.78;;;3.47;;
9938;SDS011;5008;50.656;7.188;2024-03-22T14:30:18;3.85;;;3.55;;
9938;SDS011;5008;50.656;7.188;2024-03-22T14:32:46;3.88;;;3.47;;
9938;SDS011;5008;50.656;7.188;2024-03-22T14:35:12;4.70;;;3.90;;
9938;SDS011;5008;50.656;7.188;2024-03-22T14:37:38;3.85;;;3.20;;
9938;SDS011;5008;50.656;7.188;2024-03-22T14:40:05;3.60;;;3.30;;
9938;SDS011;5008;50.656;7.188;2024-03-22T14:42:36;2.88;;;2.67;;
9938;SDS011;5008;50.656;7.188;2024-03-22T14:45:02;3.30;;;3.00;;
9938;SDS011;5008;50.656;7.188;2024-03-22T14:47:30;3.30;;;2.78;;
9938;SDS011;5008;50.656;7.188;2024-03-22T14:49:55;2.60;;;2.40;;
9938;SDS011;5008;50.656;7.188;2024-03-22T14:52:22;3.08;;;2.60;;
9938;SDS011;5008;50.656;7.188;2024-03-22T14:54:53;3.60;;;2.30;;
9938;SDS011;5008;50.656;7.188;2024-03-22T14:57:19;2.80;;;2.60;;
9938;SDS011;5008;50.656;7.188;2024-03-22T14:59:47;2.78;;;2.50;;
9938;SDS011;5008;50.656;7.188;2024-03-22T15:02:17;2.60;;;2.40;;
9938;SDS011;5008;50.656;7.188;2024-03-22T15:04:43;2.17;;;2.00;;
9938;SDS011;5008;50.656;7.188;2024-03-22T15:07:10;2.30;;;2.10;;
9938;SDS011;5008;50.656;7.188;2024-03-22T15:09:35;2.10;;;2.00;;
9938;SDS011;5008;50.656;7.188;2024-03-22T15:12:02;3.00;;;2.33;;
9938;SDS011;5008;50.656;7.188;2024-03-22T15:14:29;2.85;;;2.30;;
9938;SDS011;5008;50.656;7.188;2024-03-22T15:16:57;3.13;;;2.83;;
9938;SDS011;5008;50.656;7.188;2024-03-22T15:19:23;3.03;;;2.72;;
9938;SDS011;5008;50.656;7.188;2024-03-22T15:21:50;2.53;;;2.28;;
9938;SDS011;5008;50.656;7.188;2024-03-22T15:24:16;4.47;;;2.40;;
9938;SDS011;5008;50.656;7.188;2024-03-22T15:26:46;2.65;;;2.20;;
9938;SDS011;5008;50.656;7.188;2024-03-22T15:29:11;3.38;;;3.05;;
9938;SDS011;5008;50.656;7.188;2024-03-22T15:31:38;2.72;;;2.20;;
9938;SDS011;5008;50.656;7.188;2024-03-22T15:34:05;2.85;;;2.53;;
9938;SDS011;5008;50.656;7.188;2024-03-22T15:36:32;3.25;;;2.05;;
9938;SDS011;5008;50.656;7.188;2024-03-22T15:38:58;2.08;;;1.80;;
9938;SDS011;5008;50.656;7.188;2024-03-22T15:41:25;2.50;;;2.05;;
9938;SDS011;5008;50.656;7.188;2024-03-22T15:43:51;3.58;;;2.90;;
9938;SDS011;5008;50.656;7.188;2024-03-22T15:46:26;2.97;;;2.65;;
9938;SDS011;5008;50.656;7.188;2024-03-22T15:48:52;2.90;;;2.53;;
9938;SDS011;5008;50.656;7.188;2024-03-22T15:51:20;2.90;;;2.58;;
9938;SDS011;5008;50.656;7.188;2024-03-22T15:53:48;4.22;;;3.70;;
9938;SDS011;5008;50.656;7.188;2024-03-22T15:56:15;4.28;;;3.78;;
9938;SDS011;5008;50.656;7.188;2024-03-22T15:58:42;5.00;;;3.15;;
9938;SDS011;5008;50.656;7.188;2024-03-22T16:01:14;4.57;;;3.92;;
9938;SDS011;5008;50.656;7.188;2024-03-22T16:03:40;3.55;;;3.25;;
9938;SDS011;5008;50.656;7.188;2024-03-22T16:06:07;3.70;;;3.22;;
9938;SDS011;5008;50.656;7.188;2024-03-22T16:08:40;4.68;;;3.50;;
9938;SDS011;5008;50.656;7.188;2024-03-22T16:11:07;4.50;;;4.10;;
9938;SDS011;5008;50.656;7.188;2024-03-22T16:13:33;3.80;;;3.50;;
9938;SDS011;5008;50.656;7.188;2024-03-22T16:15:59;5.00;;;4.45;;
9938;SDS011;5008;50.656;7.188;2024-03-22T16:18:25;4.63;;;4.18;;
9938;SDS011;5008;50.656;7.188;2024-03-22T16:20:52;5.05;;;4.55;;
9938;SDS011;5008;50.656;7.188;2024-03-22T16:23:18;4.80;;;4.35;;
9938;SDS011;5008;50.656;7.188;2024-03-22T16:25:48;5.28;;;4.78;;
9938;SDS011;5008;50.656;7.188;2024-03-22T16:28:14;5.88;;;5.30;;
9938;SDS011;5008;50.656;7.188;2024-03-22T16:30:41;5.88;;;5.10;;
9938;SDS011;5008;50.656;7.188;2024-03-22T16:33:07;7.60;;;5.60;;
9938;SDS011;5008;50.656;7.188;2024-03-22T16:35:36;6.18;;;5.55;;
9938;SDS011;5008;50.656;7.188;2024-03-22T16:38:02;7.45;;;5.88;;
9938;SDS011;5008;50.656;7.188;2024-03-22T16:40:30;8.07;;;6.30;;
9938;SDS011;5008;50.656;7.188;2024-03-22T16:42:57;5.95;;;5.35;;
9938;SDS011;5008;50.656;7.188;2024-03-22T16:45:24;6.80;;;6.13;;
9938;SDS011;5008;50.656;7.188;2024-03-22T16:47:51;10.95;;;6.30;;
9938;SDS011;5008;50.656;7.188;2024-03-22T16:50:18;9.05;;;7.05;;
9938;SDS011;5008;50.656;7.188;2024-03-22T16:52:44;5.47;;;4.95;;
9938;SDS011;5008;50.656;7.188;2024-03-22T16:55:11;11.60;;;7.25;;
9938;SDS011;5008;50.656;7.188;2024-03-22T16:57:38;9.25;;;6.97;;
9938;SDS011;5008;50.656;7.188;2024-03-22T17:00:07;8.05;;;6.90;;
9938;SDS011;5008;50.656;7.188;2024-03-22T17:02:33;10.48;;;7.43;;
9938;SDS011;5008;50.656;7.188;2024-03-22T17:05:01;9.63;;;8.30;;
9938;SDS011;5008;50.656;7.188;2024-03-22T17:07:28;13.10;;;7.35;;
9938;SDS011;5008;50.656;7.188;2024-03-22T17:09:55;8.73;;;7.13;;
9938;SDS011;5008;50.656;7.188;2024-03-22T17:12:21;9.07;;;7.20;;
9938;SDS011;5008;50.656;7.188;2024-03-22T17:14:48;11.45;;;9.25;;
9938;SDS011;5008;50.656;7.188;2024-03-22T17:17:16;9.55;;;7.70;;
9938;SDS011;5008;50.656;7.188;2024-03-22T17:19:45;11.35;;;9.45;;
9938;SDS011;5008;50.656;7.188;2024-03-22T17:22:13;11.30;;;9.73;;
9938;SDS011;5008;50.656;7.188;2024-03-22T17:24:40;12.50;;;9.80;;
9938;SDS011;5008;50.656;7.188;2024-03-22T17:27:07;13.38;;;10.23;;
9938;SDS011;5008;50.656;7.188;2024-03-22T17:29:34;11.05;;;9.52;;
9938;SDS011;5008;50.656;7.188;2024-03-22T17:32:00;12.43;;;10.15;;
9938;SDS011;5008;50.656;7.188;2024-03-22T17:34:28;11.75;;;10.02;;
9938;SDS011;5008;50.656;7.188;2024-03-22T17:36:54;13.27;;;10.45;;
9938;SDS011;5008;50.656;7.188;2024-03-22T17:39:20;11.25;;;9.80;;
9938;SDS011;5008;50.656;7.188;2024-03-22T17:41:46;12.68;;;9.98;;
9938;SDS011;5008;50.656;7.188;2024-03-22T17:44:13;12.30;;;9.73;;
9938;SDS011;5008;50.656;7.188;2024-03-22T17:46:39;12.27;;;10.85;;
9938;SDS011;5008;50.656;7.188;2024-03-22T17:49:06;13.10;;;9.93;;
9938;SDS011;5008;50.656;7.188;2024-03-22T17:51:33;11.55;;;10.05;;
9938;SDS011;5008;50.656;7.188;2024-03-22T17:54:00;15.45;;;11.38;;
9938;SDS011;5008;50.656;7.188;2024-03-22T17:56:27;13.43;;;11.07;;
9938;SDS011;5008;50.656;7.188;2024-03-22T17:58:53;12.88;;;10.95;;
9938;SDS011;5008;50.656;7.188;2024-03-22T18:01:19;12.45;;;11.15;;
9938;SDS011;5008;50.656;7.188;2024-03-22T18:03:46;12.33;;;10.67;;
9938;SDS011;5008;50.656;7.188;2024-03-22T18:06:13;11.40;;;10.30;;
9938;SDS011;5008;50.656;7.188;2024-03-22T18:08:41;11.95;;;10.25;;
9938;SDS011;5008;50.656;7.188;2024-03-22T18:11:07;13.03;;;11.33;;
9938;SDS011;5008;50.656;7.188;2024-03-22T18:13:34;15.25;;;12.07;;
9938;SDS011;5008;50.656;7.188;2024-03-22T18:16:02;14.77;;;11.67;;
9938;SDS011;5008;50.656;7.188;2024-03-22T18:18:29;15.53;;;12.87;;
9938;SDS011;5008;50.656;7.188;2024-03-22T18:20:55;15.87;;;13.10;;
9938;SDS011;5008;50.656;7.188;2024-03-22T18:23:22;15.50;;;13.17;;
9938;SDS011;5008;50.656;7.188;2024-03-22T18:25:49;16.67;;;13.60;;
9938;SDS011;5008;50.656;7.188;2024-03-22T18:28:16;18.70;;;13.80;;
9938;SDS011;5008;50.656;7.188;2024-03-22T18:30:42;17.77;;;13.87;;
9938;SDS011;5008;50.656;7.188;2024-03-22T18:33:11;17.83;;;14.73;;
9938;SDS011;5008;50.656;7.188;2024-03-22T18:35:37;20.10;;;15.27;;
9938;SDS011;5008;50.656;7.188;2024-03-22T18:38:04;17.47;;;15.47;;
9938;SDS011;5008;50.656;7.188;2024-03-22T18:40:29;19.37;;;15.17;;
9938;SDS011;5008;50.656;7.188;2024-03-22T18:42:58;20.00;;;16.43;;
9938;SDS011;5008;50.656;7.188;2024-03-22T18:45:23;22.27;;;17.13;;
9938;SDS011;5008;50.656;7.188;2024-03-22T18:47:51;19.97;;;16.87;;
9938;SDS011;5008;50.656;7.188;2024-03-22T18:50:16;19.83;;;16.77;;
9938;SDS011;5008;50.656;7.188;2024-03-22T18:52:44;19.03;;;16.30;;
9938;SDS011;5008;50.656;7.188;2024-03-22T18:55:10;18.87;;;15.43;;
9938;SDS011;5008;50.656;7.188;2024-03-22T18:57:37;20.30;;;16.27;;
9938;SDS011;5008;50.656;7.188;2024-03-22T19:00:05;24.40;;;17.47;;
9938;SDS011;5008;50.656;7.188;2024-03-22T19:02:33;18.57;;;15.80;;
9938;SDS011;5008;50.656;7.188;2024-03-22T19:05:04;20.77;;;17.07;;
9938;SDS011;5008;50.656;7.188;2024-03-22T19:07:31;18.83;;;15.93;;
9938;SDS011;5008;50.656;7.188;2024-03-22T19:09:57;18.17;;;15.40;;
9938;SDS011;5008;50.656;7.188;2024-03-22T19:12:24;19.53;;;16.33;;
9938;SDS011;5008;50.656;7.188;2024-03-22T19:14:50;19.57;;;16.83;;
9938;SDS011;5008;50.656;7.188;2024-03-22T19:17:18;20.67;;;16.87;;
9938;SDS011;5008;50.656;7.188;2024-03-22T19:19:44;20.00;;;17.37;;
9938;SDS011;5008;50.656;7.188;2024-03-22T19:22:11;23.23;;;17.87;;
9938;SDS011;5008;50.656;7.188;2024-03-22T19:24:37;19.77;;;17.67;;
9938;SDS011;5008;50.656;7.188;2024-03-22T19:27:04;21.20;;;17.63;;
9938;SDS011;5008;50.656;7.188;2024-03-22T19:29:30;23.13;;;18.57;;
9938;SDS011;5008;50.656;7.188;2024-03-22T19:31:57;21.40;;;17.70;;
9938;SDS011;5008;50.656;7.188;2024-03-22T19:34:24;19.20;;;17.13;;
9938;SDS011;5008;50.656;7.188;2024-03-22T19:36:51;20.00;;;17.60;;
9938;SDS011;5008;50.656;7.188;2024-03-22T19:39:17;21.43;;;17.77;;
9938;SDS011;5008;50.656;7.188;2024-03-22T19:41:44;20.93;;;17.60;;
9938;SDS011;5008;50.656;7.188;2024-03-22T19:44:12;20.47;;;17.20;;
9938;SDS011;5008;50.656;7.188;2024-03-22T19:46:40;21.13;;;17.10;;
9938;SDS011;5008;50.656;7.188;2024-03-22T19:49:06;19.13;;;16.80;;
9938;SDS011;5008;50.656;7.188;2024-03-22T19:51:46;19.40;;;17.07;;
9938;SDS011;5008;50.656;7.188;2024-03-22T19:54:19;18.53;;;16.50;;
9938;SDS011;5008;50.656;7.188;2024-03-22T19:56:47;18.20;;;16.27;;
9938;SDS011;5008;50.656;7.188;2024-03-22T19:59:13;20.50;;;17.43;;
9938;SDS011;5008;50.656;7.188;2024-03-22T20:01:40;18.70;;;16.10;;
9938;SDS011;5008;50.656;7.188;2024-03-22T20:04:07;17.83;;;14.83;;
9938;SDS011;5008;50.656;7.188;2024-03-22T20:06:34;17.73;;;15.77;;
9938;SDS011;5008;50.656;7.188;2024-03-22T20:09:15;17.00;;;14.60;;
9938;SDS011;5008;50.656;7.188;2024-03-22T20:11:43;17.93;;;14.80;;